Time;durP1;ratioP1;P1;durP2;ratioP2;P2;SDS_P1;SDS_P2;PMS_P1;PMS_P2;Temp;Humidity;BMP_temperature;BMP_pressure;BME280_temperature;BME280_humidity;BME280_pressure;Samples;Min_cycle;Max_cycle;Signal;HPM_P1;HPM_P2
2021/03/19 00:01:59;;;;;;;;;;;0.00;97.60;;;;;;5084261;28;20262;-68
2021/03/19 00:04:25;;;;;;;;;;;0.00;97.30;;;;;;5093505;28;20336;-68
2021/03/19 00:06:50;;;;;;;;;;;0.00;97.10;;;;;;5083863;28;19952;-69
2021/03/19 00:09:16;;;;;;;;;;;0.10;97.20;;;;;;5081233;28;19913;-69
2021/03/19 00:11:41;;;;;;;;;;;0.10;97.30;;;;;;5079071;28;19916;-69
2021/03/19 00:14:09;;;;;;;;;;;0.20;97.20;;;;;;5084370;28;19912;-70
2021/03/19 00:16:34;;;;;;;;;;;0.10;97.60;;;;;;5084634;28;19974;-68
2021/03/19 00:19:00;;;;;;;;;;;0.00;97.60;;;;;;5091665;28;19916;-69
2021/03/19 00:21:26;;;;;;;;;;;0.10;97.80;;;;;;5084244;28;19917;-69
2021/03/19 00:23:52;;;;;;;;;;;0.10;97.70;;;;;;5058819;28;19995;-69
2021/03/19 00:26:17;;;;;;;;;;;0.20;97.80;;;;;;5085197;28;19920;-68
2021/03/19 00:28:43;;;;;;;;;;;0.20;97.20;;;;;;5079533;28;19912;-69
2021/03/19 00:31:08;;;;;;;;;;;0.20;96.70;;;;;;5085370;28;19919;-69
2021/03/19 00:33:34;;;;;;;;;;;0.20;97.10;;;;;;5091716;28;20003;-68
2021/03/19 00:36:00;;;;;;;;;;;0.20;96.90;;;;;;5091180;28;20370;-69
2021/03/19 00:38:25;;;;;;;;;;;0.30;96.90;;;;;;5090798;28;19916;-69
2021/03/19 00:40:51;;;;;;;;;;;0.30;97.20;;;;;;5083349;28;19919;-68
2021/03/19 00:43:17;;;;;;;;;;;0.20;97.30;;;;;;5083416;28;20312;-68
2021/03/19 00:45:43;;;;;;;;;;;0.10;97.30;;;;;;5085585;28;19912;-68
2021/03/19 00:48:09;;;;;;;;;;;0.10;97.80;;;;;;5083937;28;20495;-67
2021/03/19 00:50:36;;;;;;;;;;;0.00;97.70;;;;;;5089889;28;19920;-69
2021/03/19 00:53:02;;;;;;;;;;;0.00;97.70;;;;;;5089086;28;20003;-70
2021/03/19 00:55:28;;;;;;;;;;;0.00;97.70;;;;;;5084558;28;19913;-69
2021/03/19 00:57:54;;;;;;;;;;;-0.10;97.70;;;;;;5090968;28;19929;-68
2021/03/19 01:00:21;;;;;;;;;;;-0.10;97.70;;;;;;5079894;28;19971;-69
2021/03/19 01:02:47;;;;;;;;;;;-0.20;97.60;;;;;;5063264;28;20305;-69
2021/03/19 01:05:17;;;;;;;;;;;-0.30;97.50;;;;;;5087828;28;19918;-69
2021/03/19 01:07:43;;;;;;;;;;;-0.30;97.50;;;;;;5092976;28;19982;-69
2021/03/19 01:10:10;;;;;;;;;;;-0.30;97.30;;;;;;5085580;28;20316;-70
2021/03/19 01:12:36;;;;;;;;;;;-0.40;97.50;;;;;;5085643;28;19935;-69
2021/03/19 01:15:02;;;;;;;;;;;-0.60;97.30;;;;;;5089709;28;19916;-69
2021/03/19 01:17:28;;;;;;;;;;;-0.70;97.30;;;;;;5084789;28;19920;-70
2021/03/19 01:19:54;;;;;;;;;;;-0.70;97.40;;;;;;5071487;28;19965;-70
2021/03/19 01:22:19;;;;;;;;;;;-0.70;97.30;;;;;;5095160;28;19921;-69
2021/03/19 01:24:45;;;;;;;;;;;-0.80;97.40;;;;;;5066724;28;19917;-70
2021/03/19 01:27:13;;;;;;;;;;;-0.80;97.20;;;;;;5079290;28;19913;-69
2021/03/19 01:29:38;;;;;;;;;;;-0.80;97.20;;;;;;5092042;28;19943;-70
2021/03/19 01:32:04;;;;;;;;;;;-0.70;97.50;;;;;;5078552;28;20301;-70
2021/03/19 01:34:29;;;;;;;;;;;-0.70;97.30;;;;;;5094053;28;19934;-70
2021/03/19 01:36:55;;;;;;;;;;;-0.70;97.40;;;;;;5086932;28;20258;-70
2021/03/19 01:39:20;;;;;;;;;;;-0.60;97.40;;;;;;5089110;28;20285;-70
2021/03/19 01:41:51;;;;;;;;;;;-0.60;97.70;;;;;;5090365;28;19924;-70
2021/03/19 01:44:16;;;;;;;;;;;-0.70;97.60;;;;;;5077337;28;19948;-70
2021/03/19 01:47:01;;;;;;;;;;;-0.70;97.40;;;;;;5083327;28;19916;-70
2021/03/19 01:49:45;;;;;;;;;;;-0.80;97.40;;;;;;5078347;28;19947;-70
2021/03/19 01:52:29;;;;;;;;;;;-0.90;97.60;;;;;;5091373;28;20021;-70
2021/03/19 01:55:13;;;;;;;;;;;-1.00;97.50;;;;;;5083809;28;19963;-70
2021/03/19 01:57:57;;;;;;;;;;;-1.00;97.60;;;;;;5078490;28;19924;-70
2021/03/19 02:00:41;;;;;;;;;;;-1.10;97.30;;;;;;5076901;28;19912;-69
2021/03/19 02:03:25;;;;;;;;;;;-1.20;97.60;;;;;;5090277;28;19912;-70
2021/03/19 02:06:09;;;;;;;;;;;-1.20;97.50;;;;;;5091623;28;19912;-70
2021/03/19 02:08:53;;;;;;;;;;;-1.10;97.60;;;;;;5077014;28;20309;-70
2021/03/19 02:11:37;;;;;;;;;;;-1.20;97.70;;;;;;5077939;28;19912;-69
2021/03/19 02:14:22;;;;;;;;;;;-1.30;97.80;;;;;;5076919;28;19912;-69
2021/03/19 02:17:06;;;;;;;;;;;-1.30;97.80;;;;;;5077151;28;19920;-70
2021/03/19 02:19:50;;;;;;;;;;;-1.50;97.80;;;;;;5083805;28;20316;-69
2021/03/19 02:22:37;;;;;;;;;;;-1.70;97.60;;;;;;5090893;28;19913;-68
2021/03/19 02:25:21;;;;;;;;;;;-1.70;97.30;;;;;;5084829;28;19919;-69
2021/03/19 02:28:08;;;;;;;;;;;-1.80;97.40;;;;;;5077852;28;19916;-69
2021/03/19 02:30:52;;;;;;;;;;;-1.80;97.20;;;;;;5083830;28;19912;-71
2021/03/19 02:33:18;;;;;;;;;;;-1.90;97.40;;;;;;5092722;28;19912;-69
2021/03/19 02:36:02;;;;;;;;;;;-2.00;97.30;;;;;;5090443;28;19943;-69
2021/03/19 02:38:27;;;;;;;;;;;-2.10;97.40;;;;;;5069586;28;20426;-69
2021/03/19 02:40:53;;;;;;;;;;;-2.10;97.10;;;;;;5058999;28;20007;-67
2021/03/19 02:43:20;;;;;;;;;;;-2.10;97.40;;;;;;5079627;28;19920;-69
2021/03/19 02:45:47;;;;;;;;;;;-2.20;97.40;;;;;;5083725;28;19916;-68
2021/03/19 02:48:13;;;;;;;;;;;-2.30;97.30;;;;;;5077945;28;19919;-69
2021/03/19 02:50:39;;;;;;;;;;;-2.40;97.30;;;;;;5072085;28;19916;-69
2021/03/19 02:53:05;;;;;;;;;;;-2.40;97.40;;;;;;5078267;28;19981;-69
2021/03/19 02:55:31;;;;;;;;;;;-2.40;97.40;;;;;;5085203;28;19964;-68
2021/03/19 02:57:56;;;;;;;;;;;-2.40;97.00;;;;;;5091910;28;19920;-70
2021/03/19 03:00:23;;;;;;;;;;;-2.40;97.20;;;;;;5067517;28;19919;-68
2021/03/19 03:02:49;;;;;;;;;;;-2.30;97.20;;;;;;5093867;28;20232;-68
2021/03/19 03:05:15;;;;;;;;;;;-2.30;96.90;;;;;;5088766;28;19912;-68
2021/03/19 03:07:41;;;;;;;;;;;-2.30;97.30;;;;;;5093611;28;19915;-69
2021/03/19 03:10:08;;;;;;;;;;;-2.40;97.30;;;;;;5092234;28;20363;-68
2021/03/19 03:12:33;;;;;;;;;;;-2.50;97.00;;;;;;5083231;28;20364;-69
2021/03/19 03:14:59;;;;;;;;;;;-2.40;96.90;;;;;;5087547;28;19995;-69
2021/03/19 03:17:24;;;;;;;;;;;-2.30;96.90;;;;;;5060279;28;20008;-68
2021/03/19 03:19:50;;;;;;;;;;;-2.20;97.00;;;;;;5082435;28;19915;-68
2021/03/19 03:22:16;;;;;;;;;;;-2.10;97.00;;;;;;5076709;28;20007;-68
2021/03/19 03:24:41;;;;;;;;;;;-2.10;97.20;;;;;;5077628;28;19917;-69
2021/03/19 03:27:08;;;;;;;;;;;-2.00;97.20;;;;;;5080272;28;19916;-69
2021/03/19 03:29:34;;;;;;;;;;;-1.90;97.20;;;;;;5087808;28;19932;-68
2021/03/19 03:31:59;;;;;;;;;;;-1.90;97.10;;;;;;5089186;28;19916;-68
2021/03/19 03:34:25;;;;;;;;;;;-1.80;97.20;;;;;;5085106;28;19912;-68
2021/03/19 03:36:51;;;;;;;;;;;-1.80;97.30;;;;;;5087614;28;19916;-68
2021/03/19 03:39:21;;;;;;;;;;;-1.80;97.30;;;;;;5088824;28;19920;-68
2021/03/19 03:41:49;;;;;;;;;;;-1.80;97.50;;;;;;5085686;28;19917;-68
2021/03/19 03:44:16;;;;;;;;;;;-1.80;97.40;;;;;;5083585;28;19908;-68
2021/03/19 03:46:44;;;;;;;;;;;-1.80;97.30;;;;;;5075856;28;19912;-70
2021/03/19 03:49:10;;;;;;;;;;;-1.80;97.40;;;;;;5085209;28;19930;-70
2021/03/19 03:51:36;;;;;;;;;;;-1.80;97.40;;;;;;5076549;28;19939;-69
2021/03/19 03:54:02;;;;;;;;;;;-1.90;97.50;;;;;;5067298;28;19961;-70
2021/03/19 03:56:28;;;;;;;;;;;-1.90;97.30;;;;;;5076147;28;19992;-70
2021/03/19 03:58:53;;;;;;;;;;;-1.90;97.50;;;;;;5076440;28;20003;-70
2021/03/19 04:01:19;;;;;;;;;;;-1.90;97.40;;;;;;5060785;28;19995;-69
2021/03/19 04:03:45;;;;;;;;;;;-1.80;97.30;;;;;;5083328;28;19920;-69
2021/03/19 04:06:10;;;;;;;;;;;-1.80;97.40;;;;;;5058076;28;19916;-69
2021/03/19 04:08:38;;;;;;;;;;;-1.90;97.60;;;;;;5064773;28;19913;-69
2021/03/19 04:11:08;;;;;;;;;;;-1.90;97.50;;;;;;5097769;28;19991;-69
2021/03/19 04:13:33;;;;;;;;;;;-1.90;97.50;;;;;;5071079;28;19959;-69
2021/03/19 04:15:59;;;;;;;;;;;-1.90;97.50;;;;;;5079288;28;19959;-69
2021/03/19 04:18:25;;;;;;;;;;;-1.90;97.30;;;;;;5094023;28;20020;-69
2021/03/19 04:20:52;;;;;;;;;;;-1.80;97.40;;;;;;5082150;28;19919;-68
2021/03/19 04:23:18;;;;;;;;;;;-1.80;97.60;;;;;;5093733;28;19912;-69
2021/03/19 04:25:43;;;;;;;;;;;-1.70;97.80;;;;;;5093659;28;19919;-69
2021/03/19 04:28:11;;;;;;;;;;;-1.70;97.80;;;;;;5095288;28;19919;-69
2021/03/19 04:30:39;;;;;;;;;;;-1.70;97.80;;;;;;5063216;28;20395;-69
2021/03/19 04:33:06;;;;;;;;;;;-1.60;97.70;;;;;;5088468;28;20196;-69
2021/03/19 04:35:33;;;;;;;;;;;-1.60;97.80;;;;;;5071512;28;19965;-69
2021/03/19 04:38:00;;;;;;;;;;;-1.60;97.90;;;;;;5069927;28;19916;-69
2021/03/19 04:40:27;;;;;;;;;;;-1.60;98.00;;;;;;5093896;28;19913;-69
2021/03/19 04:42:53;;;;;;;;;;;-1.50;97.90;;;;;;5068526;28;20198;-69
2021/03/19 04:45:21;;;;;;;;;;;-1.50;98.00;;;;;;5084086;28;19912;-70
2021/03/19 04:47:52;;;;;;;;;;;-1.50;98.00;;;;;;5070949;28;19920;-69
2021/03/19 04:50:18;;;;;;;;;;;-1.50;98.00;;;;;;5084883;28;19920;-69
2021/03/19 04:52:44;;;;;;;;;;;-1.40;98.00;;;;;;5081363;28;19927;-69
2021/03/19 04:55:09;;;;;;;;;;;-1.40;98.00;;;;;;5082315;28;19921;-69
2021/03/19 04:57:35;;;;;;;;;;;-1.40;98.00;;;;;;5083528;28;20271;-69
2021/03/19 05:00:02;;;;;;;;;;;-1.30;98.00;;;;;;5092608;28;20568;-68
2021/03/19 05:02:36;;;;;;;;;;;-1.30;98.00;;;;;;5094901;28;19977;-68
2021/03/19 05:05:02;;;;;;;;;;;-1.30;98.00;;;;;;5084982;28;19916;-68
2021/03/19 05:07:28;;;;;;;;;;;-1.40;98.00;;;;;;5078280;28;19916;-68
2021/03/19 05:09:53;;;;;;;;;;;-1.40;98.00;;;;;;5082735;28;19919;-68
2021/03/19 05:12:19;;;;;;;;;;;-1.40;98.00;;;;;;5078706;28;19912;-69
2021/03/19 05:14:45;;;;;;;;;;;-1.40;98.00;;;;;;5082262;28;20201;-68
2021/03/19 05:17:10;;;;;;;;;;;-1.40;98.00;;;;;;5081951;28;19917;-68
2021/03/19 05:19:36;;;;;;;;;;;-1.30;98.00;;;;;;5092819;28;19974;-68
2021/03/19 05:22:01;;;;;;;;;;;-1.30;98.00;;;;;;5084637;28;19916;-67
2021/03/19 05:24:27;;;;;;;;;;;-1.30;98.00;;;;;;5065812;28;19913;-68
2021/03/19 05:26:52;;;;;;;;;;;-1.20;98.00;;;;;;5079882;28;19916;-68
2021/03/19 05:29:18;;;;;;;;;;;-1.20;98.00;;;;;;5082373;28;19913;-69
2021/03/19 05:31:44;;;;;;;;;;;-1.20;98.00;;;;;;5071484;28;19912;-67
2021/03/19 05:34:10;;;;;;;;;;;-1.20;98.00;;;;;;5065107;28;20300;-68
2021/03/19 05:36:36;;;;;;;;;;;-1.20;98.00;;;;;;5093626;28;19920;-68
2021/03/19 05:39:03;;;;;;;;;;;-1.10;98.00;;;;;;5092459;28;19919;-68
2021/03/19 05:41:30;;;;;;;;;;;-1.10;98.00;;;;;;5091674;28;19949;-67
2021/03/19 05:44:06;;;;;;;;;;;-1.10;98.00;;;;;;5082639;28;20290;-67
2021/03/19 05:46:32;;;;;;;;;;;-1.10;98.00;;;;;;5084089;28;20217;-68
2021/03/19 05:48:58;;;;;;;;;;;-1.10;98.00;;;;;;5082546;28;19916;-67
2021/03/19 05:51:29;;;;;;;;;;;-1.10;98.00;;;;;;5086478;28;20356;-68
2021/03/19 05:53:56;;;;;;;;;;;-1.10;98.00;;;;;;5083169;28;19920;-68
2021/03/19 05:56:24;;;;;;;;;;;-1.10;98.00;;;;;;5083529;28;19920;-69
2021/03/19 05:58:52;;;;;;;;;;;-1.00;98.00;;;;;;5084091;28;20236;-70
2021/03/19 06:01:18;;;;;;;;;;;-1.00;98.00;;;;;;5073240;28;19919;-70
2021/03/19 06:03:45;;;;;;;;;;;-1.00;98.00;;;;;;5092609;28;20320;-69
2021/03/19 06:06:11;;;;;;;;;;;-1.00;98.00;;;;;;5066087;28;19920;-69
2021/03/19 06:08:43;;;;;;;;;;;-0.90;98.00;;;;;;5077498;28;20012;-69
2021/03/19 06:11:11;;;;;;;;;;;-0.90;98.00;;;;;;5087547;28;19956;-68
2021/03/19 06:13:39;;;;;;;;;;;-0.80;98.00;;;;;;5096196;28;19908;-70
2021/03/19 06:16:23;;;;;;;;;;;-0.80;98.00;;;;;;5078102;28;19912;-69
2021/03/19 06:18:50;;;;;;;;;;;-0.60;98.00;;;;;;5076837;28;19917;-69
2021/03/19 06:21:18;;;;;;;;;;;-0.50;98.00;;;;;;5077371;28;19912;-70
2021/03/19 06:24:07;;;;;;;;;;;;;;;;;;;;;
2021/03/19 06:26:37;;;;;;;;;;;-0.20;98.00;;;;;;5092283;28;19912;-69
2021/03/19 06:29:24;;;;;;;;;;;-0.20;98.00;;;;;;5089361;28;20186;-69
2021/03/19 06:32:07;;;;;;;;;;;-0.10;98.00;;;;;;5076611;28;19912;-68
2021/03/19 06:34:33;;;;;;;;;;;0.20;98.00;;;;;;5085829;28;20216;-68
2021/03/19 06:36:58;;;;;;;;;;;0.40;98.00;;;;;;5096857;28;20215;-68
2021/03/19 06:39:26;;;;;;;;;;;0.60;98.00;;;;;;5088060;28;20003;-68
2021/03/19 06:42:01;;;;;;;;;;;0.60;98.00;;;;;;5076454;28;19955;-70
2021/03/19 06:44:29;;;;;;;;;;;0.60;98.00;;;;;;5076493;28;19917;-70
2021/03/19 06:46:57;;;;;;;;;;;0.60;98.00;;;;;;5076411;28;19909;-69
2021/03/19 06:49:24;;;;;;;;;;;0.60;98.00;;;;;;5084629;28;19923;-70
2021/03/19 06:51:51;;;;;;;;;;;0.60;97.80;;;;;;5096803;28;19908;-69
2021/03/19 06:54:23;;;;;;;;;;;0.60;97.80;;;;;;5089112;28;19920;-69
2021/03/19 06:57:05;;;;;;;;;;;0.70;97.50;;;;;;5078963;28;19919;-69
2021/03/19 06:59:51;;;;;;;;;;;0.70;97.80;;;;;;5079330;28;19931;-69
2021/03/19 07:02:20;;;;;;;;;;;0.80;97.70;;;;;;5095937;28;19935;-69
2021/03/19 07:04:45;;;;;;;;;;;0.90;97.70;;;;;;5092037;28;19932;-69
2021/03/19 07:07:17;;;;;;;;;;;0.90;97.20;;;;;;5058504;28;19912;-69
2021/03/19 07:09:51;;;;;;;;;;;0.90;96.60;;;;;;5079188;28;19912;-69
2021/03/19 07:12:21;;;;;;;;;;;0.80;96.70;;;;;;5069446;28;19920;-69
2021/03/19 07:14:50;;;;;;;;;;;0.80;96.70;;;;;;5078090;28;19923;-69
2021/03/19 07:17:19;;;;;;;;;;;0.90;96.20;;;;;;5095965;28;20300;-69
2021/03/19 07:20:04;;;;;;;;;;;1.00;96.20;;;;;;5076081;28;19939;-69
2021/03/19 07:22:39;;;;;;;;;;;0.90;96.00;;;;;;5076239;28;19916;-69
2021/03/19 07:25:17;;;;;;;;;;;1.00;96.30;;;;;;5091863;28;19989;-69
2021/03/19 07:27:42;;;;;;;;;;;1.20;96.10;;;;;;5083756;28;19956;-70
2021/03/19 07:30:27;;;;;;;;;;;1.40;95.80;;;;;;5076486;28;19997;-69
2021/03/19 07:32:53;;;;;;;;;;;1.60;95.00;;;;;;5078995;28;19912;-69
2021/03/19 07:35:21;;;;;;;;;;;1.90;94.20;;;;;;5078119;28;20209;-70
2021/03/19 07:37:54;;;;;;;;;;;2.30;93.80;;;;;;5093825;28;19912;-70
2021/03/19 07:40:26;;;;;;;;;;;2.70;92.70;;;;;;5085381;28;20015;-69
2021/03/19 07:42:57;;;;;;;;;;;3.10;90.90;;;;;;5090120;28;19915;-70
2021/03/19 07:45:41;;;;;;;;;;;3.50;90.80;;;;;;5076806;28;20007;-70
2021/03/19 07:48:10;;;;;;;;;;;3.90;89.50;;;;;;5095992;28;20208;-70
2021/03/19 07:50:38;;;;;;;;;;;4.30;87.30;;;;;;5095185;28;20291;-69
2021/03/19 07:53:22;;;;;;;;;;;4.70;87.00;;;;;;5096014;28;19962;-71
2021/03/19 07:55:47;;;;;;;;;;;4.80;85.30;;;;;;5086537;28;19912;-70
2021/03/19 07:58:19;;;;;;;;;;;4.60;85.70;;;;;;5089879;28;19926;-70
2021/03/19 08:00:49;;;;;;;;;;;4.20;86.20;;;;;;5080539;28;19921;-69
2021/03/19 08:03:27;;;;;;;;;;;3.50;89.50;;;;;;5087726;28;20335;-71
2021/03/19 08:05:53;;;;;;;;;;;3.00;91.50;;;;;;5075609;28;19930;-71
2021/03/19 08:08:35;;;;;;;;;;;2.40;93.80;;;;;;5069175;28;19920;-71
2021/03/19 08:11:13;;;;;;;;;;;2.10;95.50;;;;;;5094878;28;19908;-70
2021/03/19 08:13:54;;;;;;;;;;;2.00;96.60;;;;;;5092707;28;20011;-72
2021/03/19 08:16:38;;;;;;;;;;;2.30;97.00;;;;;;5095654;28;19908;-71
2021/03/19 08:19:19;;;;;;;;;;;2.40;96.40;;;;;;5091259;28;20357;-71
2021/03/19 08:21:58;;;;;;;;;;;2.30;96.30;;;;;;5086132;28;19916;-71
2021/03/19 08:24:42;;;;;;;;;;;2.30;96.60;;;;;;5083859;28;19919;-71
2021/03/19 08:27:13;;;;;;;;;;;2.30;96.50;;;;;;5076222;28;19913;-72
2021/03/19 08:29:45;;;;;;;;;;;2.40;96.60;;;;;;5076391;28;19969;-72
2021/03/19 08:32:29;;;;;;;;;;;2.80;95.80;;;;;;5075583;28;19912;-71
2021/03/19 08:35:14;;;;;;;;;;;3.30;95.30;;;;;;5057500;28;19908;-71
2021/03/19 08:37:54;;;;;;;;;;;3.60;92.80;;;;;;5075187;28;19916;-72
2021/03/19 08:40:31;;;;;;;;;;;3.90;90.70;;;;;;5077017;28;19959;-72
2021/03/19 08:42:57;;;;;;;;;;;4.00;89.80;;;;;;5067603;28;19999;-72
2021/03/19 08:45:24;;;;;;;;;;;4.00;89.10;;;;;;5068404;28;20250;-72
2021/03/19 08:47:53;;;;;;;;;;;4.10;89.20;;;;;;5084254;28;19944;-72
2021/03/19 08:50:34;;;;;;;;;;;4.30;87.70;;;;;;5089065;28;19916;-71
2021/03/19 08:53:18;;;;;;;;;;;4.50;88.30;;;;;;5095138;28;19912;-72
2021/03/19 08:55:46;;;;;;;;;;;4.50;87.60;;;;;;5070838;28;20316;-71
2021/03/19 08:58:30;;;;;;;;;;;4.40;88.20;;;;;;5082085;28;19924;-71
2021/03/19 09:01:07;;;;;;;;;;;4.40;88.40;;;;;;5090317;28;20117;-71
2021/03/19 09:03:42;;;;;;;;;;;4.30;90.10;;;;;;5079440;28;19995;-71
2021/03/19 09:06:07;;;;;;;;;;;4.20;91.00;;;;;;5079747;28;20304;-71
2021/03/19 09:08:54;;;;;;;;;;;3.70;91.40;;;;;;5093024;28;19912;-71
2021/03/19 09:11:23;;;;;;;;;;;3.40;92.80;;;;;;5071086;28;19970;-71
2021/03/19 09:14:04;;;;;;;;;;;2.90;93.90;;;;;;5081724;28;19912;-72
2021/03/19 09:16:50;;;;;;;;;;;2.50;95.30;;;;;;5098750;28;20197;-71
2021/03/19 09:19:28;;;;;;;;;;;2.10;96.40;;;;;;5071583;28;19920;-71
2021/03/19 09:22:16;;;;;;;;;;;1.70;97.10;;;;;;5082958;28;20015;-70
2021/03/19 09:24:41;;;;;;;;;;;1.50;97.50;;;;;;5078027;28;19908;-69
2021/03/19 09:27:22;;;;;;;;;;;1.50;97.90;;;;;;5090581;28;19995;-70
2021/03/19 09:29:48;;;;;;;;;;;1.50;97.90;;;;;;5097069;28;20236;-70
2021/03/19 09:32:25;;;;;;;;;;;1.50;98.00;;;;;;5098212;28;19915;-69
2021/03/19 09:34:51;;;;;;;;;;;1.60;98.00;;;;;;5092467;28;19969;-71
2021/03/19 09:37:35;;;;;;;;;;;1.60;97.50;;;;;;5060637;28;19916;-72
2021/03/19 09:40:06;;;;;;;;;;;1.90;97.90;;;;;;5078525;28;20007;-72
2021/03/19 09:42:32;;;;;;;;;;;2.20;97.50;;;;;;5097872;28;19938;-71
2021/03/19 09:45:04;;;;;;;;;;;2.60;97.10;;;;;;5093109;28;20297;-72
2021/03/19 09:47:34;;;;;;;;;;;2.70;96.00;;;;;;5087993;28;19966;-71
2021/03/19 09:50:12;;;;;;;;;;;2.90;96.40;;;;;;5074201;28;19959;-71
2021/03/19 09:52:38;;;;;;;;;;;2.90;95.50;;;;;;5085031;28;19912;-71
2021/03/19 09:55:15;;;;;;;;;;;2.60;96.20;;;;;;5077802;28;19912;-70
2021/03/19 09:57:40;;;;;;;;;;;2.60;96.10;;;;;;5095698;28;19927;-71
2021/03/19 10:00:19;;;;;;;;;;;2.90;96.40;;;;;;5088887;28;19916;-71
2021/03/19 10:02:45;;;;;;;;;;;3.20;95.50;;;;;;5077658;28;20079;-71
2021/03/19 10:05:25;;;;;;;;;;;3.50;95.30;;;;;;5077971;28;20352;-71
2021/03/19 10:07:50;;;;;;;;;;;4.00;94.00;;;;;;5096093;28;19912;-71
2021/03/19 10:10:22;;;;;;;;;;;4.30;93.30;;;;;;5093489;28;19962;-71
2021/03/19 10:12:47;;;;;;;;;;;4.60;90.50;;;;;;5075595;28;19966;-71
2021/03/19 10:15:15;;;;;;;;;;;4.40;90.80;;;;;;5083686;28;19947;-71
2021/03/19 10:17:47;;;;;;;;;;;4.50;89.10;;;;;;5076264;28;19916;-70
2021/03/19 10:20:15;;;;;;;;;;;4.60;88.40;;;;;;5094484;28;20223;-71
2021/03/19 10:22:43;;;;;;;;;;;5.30;89.70;;;;;;5098377;28;20309;-71
2021/03/19 10:25:20;;;;;;;;;;;5.70;87.30;;;;;;5097327;28;20293;-71
2021/03/19 10:27:47;;;;;;;;;;;6.00;87.00;;;;;;5063972;28;19989;-71
2021/03/19 10:30:17;;;;;;;;;;;5.90;84.50;;;;;;5085798;28;20245;-71
2021/03/19 10:32:43;;;;;;;;;;;5.90;84.70;;;;;;5088491;28;19912;-71
2021/03/19 10:35:17;;;;;;;;;;;5.40;84.90;;;;;;5077925;28;19919;-71
2021/03/19 10:38:03;;;;;;;;;;;5.30;85.10;;;;;;5083067;28;20251;-71
2021/03/19 10:40:33;;;;;;;;;;;5.00;86.00;;;;;;5092787;28;19917;-70
2021/03/19 10:43:11;;;;;;;;;;;4.80;86.80;;;;;;5097027;28;19908;-71
2021/03/19 10:45:37;;;;;;;;;;;5.00;89.70;;;;;;5094690;28;19938;-70
2021/03/19 10:48:21;;;;;;;;;;;4.90;88.40;;;;;;5077933;28;20313;-71
2021/03/19 10:50:59;;;;;;;;;;;5.00;90.10;;;;;;5092303;28;19962;-70
2021/03/19 10:53:44;;;;;;;;;;;5.10;90.10;;;;;;5076381;28;19908;-72
2021/03/19 10:56:10;;;;;;;;;;;4.50;91.60;;;;;;5085535;28;20335;-72
2021/03/19 10:58:35;;;;;;;;;;;3.40;93.80;;;;;;5078502;28;19964;-72
2021/03/19 11:01:03;;;;;;;;;;;2.40;95.50;;;;;;5088955;28;19994;-72
2021/03/19 11:03:31;;;;;;;;;;;1.80;96.60;;;;;;5078954;28;19999;-72
2021/03/19 11:05:58;;;;;;;;;;;1.50;97.10;;;;;;5094974;28;19965;-72
2021/03/19 11:08:24;;;;;;;;;;;1.30;97.60;;;;;;5093383;28;20002;-72
2021/03/19 11:10:52;;;;;;;;;;;1.10;97.40;;;;;;5084405;28;19916;-72
2021/03/19 11:13:20;;;;;;;;;;;1.10;97.60;;;;;;5074977;28;20213;-71
2021/03/19 11:15:46;;;;;;;;;;;1.20;98.00;;;;;;5079584;28;19981;-72
2021/03/19 11:18:22;;;;;;;;;;;1.30;98.00;;;;;;5075403;28;19948;-72
2021/03/19 11:20:49;;;;;;;;;;;1.30;98.00;;;;;;5068033;28;19912;-72
2021/03/19 11:23:21;;;;;;;;;;;1.20;98.00;;;;;;5096306;28;20352;-72
2021/03/19 11:25:48;;;;;;;;;;;1.20;97.80;;;;;;5083638;28;19912;-72
2021/03/19 11:28:23;;;;;;;;;;;1.10;97.70;;;;;;5089482;28;19913;-72
2021/03/19 11:30:48;;;;;;;;;;;1.10;97.80;;;;;;5095064;28;19923;-72
2021/03/19 11:33:17;;;;;;;;;;;1.10;98.00;;;;;;5076023;28;19908;-73
2021/03/19 11:35:43;;;;;;;;;;;0.90;97.80;;;;;;5081818;28;20015;-73
2021/03/19 11:38:30;;;;;;;;;;;0.80;97.80;;;;;;5092127;28;19916;-72
2021/03/19 11:40:55;;;;;;;;;;;0.80;97.80;;;;;;5084280;28;20339;-73
2021/03/19 11:43:21;;;;;;;;;;;0.80;98.00;;;;;;5070185;28;19944;-72
2021/03/19 11:45:46;;;;;;;;;;;1.00;98.00;;;;;;5091589;28;19987;-72
2021/03/19 11:48:15;;;;;;;;;;;1.10;98.00;;;;;;5075605;28;19909;-72
2021/03/19 11:50:42;;;;;;;;;;;1.40;98.00;;;;;;5079446;28;19916;-72
2021/03/19 11:53:09;;;;;;;;;;;1.60;98.00;;;;;;5095829;28;19912;-72
2021/03/19 11:55:38;;;;;;;;;;;2.00;98.00;;;;;;5087731;28;20364;-71
2021/03/19 11:58:04;;;;;;;;;;;2.10;98.00;;;;;;5095839;28;19917;-71
2021/03/19 12:00:32;;;;;;;;;;;2.30;97.60;;;;;;5094700;28;19999;-71
2021/03/19 12:03:00;;;;;;;;;;;2.80;97.90;;;;;;5075759;28;19915;-72
2021/03/19 12:05:30;;;;;;;;;;;3.30;97.30;;;;;;5085168;28;19916;-71
2021/03/19 12:07:56;;;;;;;;;;;3.40;95.10;;;;;;5095126;28;20240;-71
2021/03/19 12:10:26;;;;;;;;;;;3.60;95.90;;;;;;5094183;28;19912;-71
2021/03/19 12:12:52;;;;;;;;;;;4.40;96.40;;;;;;5092157;28;19918;-71
2021/03/19 12:15:18;;;;;;;;;;;4.50;91.90;;;;;;5094371;28;19912;-71
2021/03/19 12:17:44;;;;;;;;;;;4.50;92.10;;;;;;5090176;28;19920;-69
2021/03/19 12:20:13;;;;;;;;;;;4.50;91.60;;;;;;5076434;28;19960;-69
2021/03/19 12:22:40;;;;;;;;;;;5.00;94.50;;;;;;5079211;28;19934;-68
2021/03/19 12:25:06;;;;;;;;;;;5.50;90.20;;;;;;5077008;28;19912;-68
2021/03/19 12:27:32;;;;;;;;;;;5.40;89.00;;;;;;5090420;28;19912;-69
2021/03/19 12:30:00;;;;;;;;;;;5.90;89.60;;;;;;5088959;28;19924;-71
2021/03/19 12:32:28;;;;;;;;;;;6.10;88.50;;;;;;5090447;28;20023;-71
2021/03/19 12:34:54;;;;;;;;;;;6.70;85.50;;;;;;5089699;28;19920;-70
2021/03/19 12:37:20;;;;;;;;;;;6.70;85.20;;;;;;5092561;28;19916;-70
2021/03/19 12:39:46;;;;;;;;;;;7.40;84.30;;;;;;5111144;28;20036;-69
2021/03/19 12:42:11;;;;;;;;;;;8.50;83.40;;;;;;5096428;28;19919;-69
2021/03/19 12:44:39;;;;;;;;;;;8.10;75.50;;;;;;5092299;28;19912;-72
2021/03/19 12:47:05;;;;;;;;;;;6.40;82.20;;;;;;5086771;28;19918;-70
2021/03/19 12:49:30;;;;;;;;;;;5.40;86.40;;;;;;5062716;28;19917;-71
2021/03/19 12:51:59;;;;;;;;;;;4.20;90.00;;;;;;5064335;28;20277;-70
2021/03/19 12:54:24;;;;;;;;;;;3.10;93.40;;;;;;5082951;28;20241;-69
2021/03/19 12:56:50;;;;;;;;;;;2.60;95.10;;;;;;5092074;28;19916;-70
2021/03/19 12:59:15;;;;;;;;;;;2.30;96.30;;;;;;5086849;28;19944;-70
2021/03/19 13:01:41;;;;;;;;;;;2.40;97.10;;;;;;5090706;28;19912;-70
2021/03/19 13:04:08;;;;;;;;;;;2.20;97.00;;;;;;5084286;28;19913;-71
2021/03/19 13:06:34;;;;;;;;;;;1.90;97.00;;;;;;5083271;28;19913;-71
2021/03/19 13:08:59;;;;;;;;;;;1.70;97.20;;;;;;5060744;28;19909;-71
2021/03/19 13:11:25;;;;;;;;;;;1.70;97.70;;;;;;5097884;28;19955;-70
2021/03/19 13:13:50;;;;;;;;;;;1.60;97.10;;;;;;5095156;28;20241;-71
2021/03/19 13:16:16;;;;;;;;;;;1.60;97.10;;;;;;5078094;28;19915;-72
2021/03/19 13:18:42;;;;;;;;;;;1.70;98.00;;;;;;5082172;28;19916;-70
2021/03/19 13:21:07;;;;;;;;;;;1.70;98.00;;;;;;5060573;28;19915;-71
2021/03/19 13:23:33;;;;;;;;;;;1.60;98.00;;;;;;5093392;28;19912;-70
2021/03/19 13:25:59;;;;;;;;;;;1.70;98.00;;;;;;5097885;28;19918;-70
2021/03/19 13:28:28;;;;;;;;;;;1.70;98.00;;;;;;5090043;28;19917;-71
2021/03/19 13:30:55;;;;;;;;;;;2.00;98.00;;;;;;5078030;28;19916;-70
2021/03/19 13:33:21;;;;;;;;;;;2.20;98.00;;;;;;5091310;28;20003;-70
2021/03/19 13:35:48;;;;;;;;;;;2.60;98.00;;;;;;5098304;28;20004;-71
2021/03/19 13:38:14;;;;;;;;;;;2.50;96.70;;;;;;5084555;28;19924;-71
2021/03/19 13:40:41;;;;;;;;;;;2.60;97.00;;;;;;5091813;28;19916;-71
2021/03/19 13:43:07;;;;;;;;;;;2.90;96.70;;;;;;5079673;28;19908;-71
2021/03/19 13:45:33;;;;;;;;;;;3.10;95.60;;;;;;5083702;28;20297;-70
2021/03/19 13:47:58;;;;;;;;;;;3.20;95.50;;;;;;5059948;28;19954;-71
2021/03/19 13:50:24;;;;;;;;;;;2.80;95.70;;;;;;5089225;28;19916;-71
2021/03/19 13:52:51;;;;;;;;;;;2.40;96.80;;;;;;5091302;28;19958;-71
2021/03/19 13:55:17;;;;;;;;;;;2.20;97.50;;;;;;5092396;28;19912;-71
2021/03/19 13:57:45;;;;;;;;;;;2.10;96.80;;;;;;5078657;28;20260;-70
2021/03/19 14:00:11;;;;;;;;;;;2.00;96.50;;;;;;5058504;28;19913;-70
2021/03/19 14:02:37;;;;;;;;;;;2.20;97.80;;;;;;5077518;28;20003;-70
2021/03/19 14:05:03;;;;;;;;;;;2.30;96.30;;;;;;5077465;28;19955;-70
2021/03/19 14:07:30;;;;;;;;;;;2.20;96.30;;;;;;5077384;28;20262;-70
2021/03/19 14:09:55;;;;;;;;;;;2.10;96.50;;;;;;5080840;28;20208;-70
2021/03/19 14:12:21;;;;;;;;;;;1.90;96.20;;;;;;5085840;28;19915;-71
2021/03/19 14:14:47;;;;;;;;;;;1.90;97.00;;;;;;5096198;28;19908;-70
2021/03/19 14:17:12;;;;;;;;;;;1.90;97.20;;;;;;5095871;28;19923;-71
2021/03/19 14:19:40;;;;;;;;;;;2.00;97.40;;;;;;5088763;28;19923;-71
2021/03/19 14:22:06;;;;;;;;;;;2.00;97.10;;;;;;5077121;28;19999;-71
2021/03/19 14:24:31;;;;;;;;;;;2.00;96.40;;;;;;5082586;28;20000;-71
2021/03/19 14:26:57;;;;;;;;;;;2.00;96.90;;;;;;5079267;28;19955;-71
2021/03/19 14:29:22;;;;;;;;;;;2.10;97.40;;;;;;5089890;28;19965;-71
2021/03/19 14:31:48;;;;;;;;;;;2.10;96.60;;;;;;5069881;28;20325;-71
2021/03/19 14:34:16;;;;;;;;;;;2.00;96.60;;;;;;5083557;28;20267;-71
2021/03/19 14:36:42;;;;;;;;;;;2.00;96.40;;;;;;5097140;28;19990;-71
2021/03/19 14:39:07;;;;;;;;;;;2.00;96.90;;;;;;5093970;28;20053;-71
2021/03/19 14:41:33;;;;;;;;;;;1.90;96.50;;;;;;5079610;28;19912;-71